createdAt,value
2018-07-22T00:01:47.635Z,51.47
2018-07-22T00:04:16.626Z,51.80
2018-07-22T00:06:45.601Z,51.57
2018-07-22T00:09:14.838Z,52.24
2018-07-22T00:11:43.782Z,51.52
2018-07-22T00:14:12.914Z,52.59
2018-07-22T00:16:41.967Z,51.98
2018-07-22T00:19:11.151Z,52.47
2018-07-22T00:21:40.160Z,53.19
2018-07-22T00:24:09.350Z,52.88
2018-07-22T00:26:38.405Z,53.77
2018-07-22T00:29:07.411Z,54.02
2018-07-22T00:31:36.390Z,53.70
2018-07-22T00:34:05.568Z,53.62
2018-07-22T00:36:34.538Z,53.55
2018-07-22T00:39:03.674Z,53.66
2018-07-22T00:41:32.649Z,53.28
2018-07-22T00:44:01.734Z,53.50
2018-07-22T00:46:30.856Z,53.74
2018-07-22T00:48:59.797Z,53.56
2018-07-22T00:51:28.929Z,53.70
2018-07-22T00:53:57.952Z,53.11
2018-07-22T00:56:26.896Z,52.58
2018-07-22T00:58:55.868Z,52.72
2018-07-22T01:01:24.868Z,52.72
2018-07-22T01:03:53.902Z,55.01
2018-07-22T01:06:22.982Z,53.48
2018-07-22T01:08:52.037Z,54.35
2018-07-22T01:11:20.972Z,53.17
2018-07-22T01:13:49.909Z,52.77
2018-07-22T01:16:19.053Z,53.26
2018-07-22T01:18:48.127Z,53.55
2018-07-22T01:21:17.186Z,53.42
2018-07-22T01:23:46.183Z,53.94
2018-07-22T01:26:15.112Z,52.85
2018-07-22T01:28:44.000Z,53.41
2018-07-22T01:31:13.067Z,53.33
2018-07-22T01:33:42.108Z,52.49
2018-07-22T01:36:11.109Z,52.65
2018-07-22T01:38:40.069Z,52.80
2018-07-22T01:41:09.255Z,52.82
2018-07-22T01:43:38.338Z,52.45
2018-07-22T01:46:07.425Z,51.49
2018-07-22T01:48:36.450Z,52.03
2018-07-22T01:51:05.412Z,51.88
2018-07-22T01:53:34.370Z,53.16
2018-07-22T01:56:03.434Z,52.90
2018-07-22T01:58:32.514Z,54.48
2018-07-22T02:01:01.542Z,54.22
2018-07-22T02:03:30.515Z,53.30
2018-07-22T02:05:59.545Z,53.42
2018-07-22T02:08:28.585Z,53.08
2018-07-22T02:10:57.549Z,52.80
2018-07-22T02:13:26.496Z,52.82
2018-07-22T02:15:55.514Z,53.71
2018-07-22T02:18:24.544Z,55.18
2018-07-22T02:20:53.633Z,53.72
2018-07-22T02:23:22.652Z,54.17
2018-07-22T02:25:51.691Z,53.96
2018-07-22T02:28:20.749Z,52.42
2018-07-22T02:30:49.752Z,51.61
2018-07-22T02:33:18.780Z,52.70
2018-07-22T02:35:47.703Z,51.04
2018-07-22T02:38:16.964Z,50.50
2018-07-22T02:40:45.935Z,50.66
2018-07-22T02:43:15.000Z,50.16
2018-07-22T02:45:44.011Z,50.49
2018-07-22T02:48:12.976Z,50.98
2018-07-22T02:50:42.099Z,52.24
2018-07-22T02:53:11.137Z,51.81
2018-07-22T02:55:40.125Z,50.48
2018-07-22T02:58:09.143Z,49.68
2018-07-22T03:00:38.153Z,50.07
2018-07-22T03:03:07.117Z,50.36
2018-07-22T03:05:36.140Z,48.61
2018-07-22T03:08:05.220Z,49.52
2018-07-22T03:10:34.246Z,49.37
2018-07-22T03:13:03.170Z,49.14
2018-07-22T03:15:32.325Z,49.24
2018-07-22T03:18:01.377Z,49.25
2018-07-22T03:20:30.478Z,49.69
2018-07-22T03:22:59.515Z,48.90
2018-07-22T03:25:28.494Z,49.33
2018-07-22T03:27:57.450Z,50.52
2018-07-22T03:30:26.469Z,50.23
2018-07-22T03:32:55.400Z,51.20
2018-07-22T03:35:24.329Z,52.07
2018-07-22T03:37:53.476Z,52.05
2018-07-22T03:40:22.438Z,51.46
2018-07-22T03:42:51.394Z,52.46
2018-07-22T03:45:20.365Z,51.61
2018-07-22T03:47:49.371Z,52.54
2018-07-22T03:50:18.384Z,51.91
2018-07-22T03:52:47.344Z,51.56
2018-07-22T03:55:16.286Z,52.88
2018-07-22T03:57:45.385Z,52.12
2018-07-22T04:00:14.329Z,52.21
2018-07-22T04:02:43.335Z,53.18
2018-07-22T04:05:12.342Z,56.73
2018-07-22T04:07:41.396Z,57.89
2018-07-22T04:10:10.500Z,56.79
2018-07-22T04:12:39.561Z,55.59
2018-07-22T04:15:08.632Z,55.37
2018-07-22T04:17:37.825Z,55.05
2018-07-22T04:20:06.921Z,54.67
2018-07-22T04:22:36.009Z,52.96
2018-07-22T04:25:05.192Z,52.72
2018-07-22T04:27:34.352Z,51.79
2018-07-22T04:30:03.512Z,52.57
2018-07-22T04:32:32.381Z,53.50
2018-07-22T04:35:01.306Z,54.19
2018-07-22T04:37:30.301Z,56.37
2018-07-22T04:39:59.287Z,54.60
2018-07-22T04:42:28.300Z,54.76
2018-07-22T04:44:57.368Z,55.68
2018-07-22T04:47:26.338Z,54.15
2018-07-22T04:49:55.232Z,55.37
2018-07-22T04:52:24.145Z,56.29
2018-07-22T04:54:53.208Z,53.18
2018-07-22T04:57:22.245Z,54.49
2018-07-22T04:59:51.283Z,53.35
2018-07-22T05:02:20.443Z,54.31
2018-07-22T05:04:49.505Z,52.42
2018-07-22T05:07:18.540Z,53.14
2018-07-22T05:09:47.600Z,52.71
2018-07-22T05:12:16.626Z,53.87
2018-07-22T05:14:45.673Z,53.99
2018-07-22T05:17:14.604Z,53.27
2018-07-22T05:19:43.550Z,52.81
2018-07-22T05:22:12.492Z,51.56
2018-07-22T05:24:41.498Z,53.97
2018-07-22T05:27:10.535Z,52.50
2018-07-22T05:29:39.602Z,53.37
2018-07-22T05:32:08.471Z,53.19
2018-07-22T05:34:37.353Z,51.99
2018-07-22T05:37:06.324Z,52.33
2018-07-22T05:39:35.285Z,52.11
2018-07-22T05:42:04.397Z,52.34
2018-07-22T05:44:33.475Z,52.90
2018-07-22T05:47:02.428Z,52.74
2018-07-22T05:49:31.381Z,54.00
2018-07-22T05:52:00.349Z,53.09
2018-07-22T05:54:29.308Z,54.13
2018-07-22T05:56:58.488Z,54.39
2018-07-22T05:59:27.584Z,53.83
2018-07-22T06:01:56.650Z,53.89
2018-07-22T06:04:25.598Z,53.09
2018-07-22T06:06:54.696Z,52.68
2018-07-22T06:09:23.655Z,50.15
2018-07-22T06:11:53.025Z,49.95
2018-07-22T06:14:22.103Z,49.08
2018-07-22T06:16:51.064Z,49.31
2018-07-22T06:19:19.989Z,48.46
2018-07-22T06:21:49.149Z,50.03
2018-07-22T06:24:18.157Z,49.98
2018-07-22T06:26:47.189Z,48.21
2018-07-22T06:29:16.270Z,47.55
2018-07-22T06:31:45.379Z,46.44
2018-07-22T06:34:14.836Z,45.89
2018-07-22T06:36:43.870Z,46.05
2018-07-22T06:39:13.901Z,45.30
2018-07-22T06:41:44.114Z,45.54
2018-07-22T06:44:13.227Z,46.33
2018-07-22T06:46:42.200Z,45.58
2018-07-22T06:49:11.291Z,45.98
2018-07-22T06:51:40.230Z,44.36
2018-07-22T06:54:09.387Z,43.46
2018-07-22T06:56:38.623Z,43.80
2018-07-22T06:59:07.722Z,42.93
2018-07-22T07:01:36.844Z,42.39
2018-07-22T07:04:05.926Z,44.48
2018-07-22T07:06:35.059Z,45.32
2018-07-22T07:09:04.344Z,45.22
2018-07-22T07:11:33.470Z,45.44
2018-07-22T07:14:02.653Z,43.56
2018-07-22T07:16:31.517Z,43.14
2018-07-22T07:19:00.572Z,42.10
2018-07-22T07:21:29.490Z,42.95
2018-07-22T07:23:58.701Z,44.73
2018-07-22T07:26:27.662Z,45.11
2018-07-22T07:28:56.637Z,44.83
2018-07-22T07:31:25.645Z,43.68
2018-07-22T07:33:54.774Z,44.67
2018-07-22T07:36:23.765Z,44.10
2018-07-22T07:38:52.939Z,43.65
2018-07-22T07:41:21.896Z,43.09
2018-07-22T07:43:50.973Z,43.11
2018-07-22T07:46:19.972Z,41.93
2018-07-22T07:48:49.023Z,43.94
2018-07-22T07:51:18.028Z,43.80
2018-07-22T07:53:47.081Z,43.00
2018-07-22T07:56:16.069Z,43.61
2018-07-22T07:58:45.156Z,42.93
2018-07-22T08:01:14.252Z,42.62
2018-07-22T08:03:43.236Z,42.67
2018-07-22T08:06:12.291Z,42.12
2018-07-22T08:08:41.320Z,41.83
2018-07-22T08:11:10.359Z,41.92
2018-07-22T08:13:39.392Z,42.83
2018-07-22T08:16:08.331Z,42.75
2018-07-22T08:18:37.269Z,39.54
2018-07-22T08:21:06.326Z,40.82
2018-07-22T08:23:35.291Z,40.13
2018-07-22T08:26:04.658Z,39.22
2018-07-22T08:28:44.453Z,40.03
2018-07-22T08:31:13.507Z,38.43
2018-07-22T08:33:42.582Z,38.81
2018-07-22T08:36:11.640Z,38.56
2018-07-22T08:38:40.664Z,38.09
2018-07-22T08:41:09.681Z,38.11
2018-07-22T08:43:38.742Z,39.31
2018-07-22T08:46:07.719Z,39.45
2018-07-22T08:48:36.717Z,37.33
2018-07-22T08:51:05.738Z,37.78
2018-07-22T08:53:34.720Z,36.72
2018-07-22T08:56:03.764Z,37.11
2018-07-22T08:58:32.813Z,36.92
2018-07-22T09:01:01.912Z,37.53
2018-07-22T09:03:30.927Z,37.20
2018-07-22T09:05:59.968Z,36.93
2018-07-22T09:08:29.050Z,36.72
2018-07-22T09:10:58.096Z,36.30
2018-07-22T09:13:27.023Z,35.74
2018-07-22T09:15:56.014Z,36.67
2018-07-22T09:18:25.052Z,35.55
2018-07-22T09:20:54.006Z,34.66
2018-07-22T09:23:23.074Z,34.73
2018-07-22T09:25:52.043Z,34.08
2018-07-22T09:28:21.033Z,32.49
2018-07-22T09:30:50.018Z,35.37
2018-07-22T09:33:18.973Z,33.18
2018-07-22T09:35:48.214Z,35.53
2018-07-22T09:38:17.150Z,35.85
2018-07-22T09:40:46.202Z,36.61
2018-07-22T09:43:15.197Z,32.31
2018-07-22T09:45:44.189Z,34.50
2018-07-22T09:48:13.105Z,33.06
2018-07-22T09:50:42.129Z,32.52
2018-07-22T09:53:11.132Z,33.13
2018-07-22T09:55:40.147Z,32.25
2018-07-22T09:58:09.081Z,33.90
2018-07-22T10:00:43.098Z,33.90
2018-07-22T10:03:12.160Z,32.01
2018-07-22T10:05:41.168Z,30.39
2018-07-22T10:08:10.446Z,30.91
2018-07-22T10:10:39.549Z,31.80
2018-07-22T10:13:09.047Z,31.36
2018-07-22T10:15:38.109Z,31.34
2018-07-22T10:18:07.204Z,32.47
2018-07-22T10:20:36.185Z,33.28
2018-07-22T10:23:05.176Z,32.71
2018-07-22T10:25:34.144Z,32.24
2018-07-22T10:28:03.917Z,29.14
2018-07-22T10:30:32.866Z,31.68
2018-07-22T10:33:01.757Z,29.22
2018-07-22T10:35:30.807Z,30.47
2018-07-22T10:38:00.301Z,32.01
2018-07-22T10:40:29.206Z,32.33
2018-07-22T10:42:59.179Z,31.97
2018-07-22T10:45:28.615Z,27.80
2018-07-22T10:47:57.758Z,31.02
2018-07-22T10:50:26.714Z,31.34
2018-07-22T10:52:56.286Z,30.15
2018-07-22T10:55:25.650Z,30.05
2018-07-22T10:57:55.152Z,30.85
2018-07-22T11:00:24.409Z,27.69
2018-07-22T11:02:53.369Z,25.56
2018-07-22T11:05:22.283Z,25.30
2018-07-22T11:07:51.207Z,25.99
2018-07-22T11:10:20.083Z,27.23
2018-07-22T11:12:48.964Z,26.67
2018-07-22T11:15:17.921Z,26.22
2018-07-22T11:17:46.810Z,26.89
2018-07-22T11:20:15.723Z,26.86
2018-07-22T11:22:44.958Z,27.88
2018-07-22T11:25:14.041Z,26.41
2018-07-22T11:27:42.881Z,27.00
2018-07-22T11:30:12.253Z,26.29
2018-07-22T11:32:41.153Z,25.09
2018-07-22T11:35:10.064Z,26.01
2018-07-22T11:37:39.051Z,27.01
2018-07-22T11:40:09.206Z,27.45
2018-07-22T11:42:38.185Z,27.87
2018-07-22T11:45:07.073Z,29.13
2018-07-22T11:47:36.386Z,26.64
2018-07-22T11:50:05.612Z,28.56
2018-07-22T11:52:34.565Z,28.68
2018-07-22T11:55:03.438Z,27.64
2018-07-22T11:57:32.346Z,30.81
2018-07-22T12:00:01.334Z,28.26
2018-07-22T12:02:30.531Z,26.74
2018-07-22T12:04:59.416Z,26.48
2018-07-22T12:07:28.272Z,25.41
2018-07-22T12:09:57.213Z,26.16
2018-07-22T12:12:26.112Z,26.50
2018-07-22T12:14:55.001Z,28.30
2018-07-22T12:17:23.924Z,26.49
2018-07-22T12:19:52.976Z,26.24
2018-07-22T12:22:22.079Z,25.60
2018-07-22T12:24:50.987Z,24.84
2018-07-22T12:27:19.834Z,26.01
2018-07-22T12:29:48.779Z,26.16
2018-07-22T12:32:17.713Z,24.93
2018-07-22T12:34:46.808Z,24.68
2018-07-22T12:37:15.715Z,24.49
2018-07-22T12:39:44.671Z,25.59
2018-07-22T12:42:13.618Z,25.14
2018-07-22T12:44:42.596Z,26.93
2018-07-22T12:47:11.596Z,26.40
2018-07-22T12:49:40.477Z,27.54
2018-07-22T12:52:09.461Z,27.53
2018-07-22T12:54:38.315Z,26.18
2018-07-22T12:57:07.249Z,26.11
2018-07-22T12:59:36.278Z,26.37
2018-07-22T13:02:05.235Z,27.27
2018-07-22T13:04:34.272Z,27.64
2018-07-22T13:07:03.176Z,29.06
2018-07-22T13:09:32.112Z,27.65
2018-07-22T13:12:00.910Z,27.04
2018-07-22T13:14:29.896Z,27.08
2018-07-22T13:16:58.740Z,27.52
2018-07-22T13:19:27.603Z,27.06
2018-07-22T13:21:56.522Z,26.94
2018-07-22T13:24:25.537Z,28.25
2018-07-22T13:26:54.492Z,28.73
2018-07-22T13:29:23.414Z,28.17
2018-07-22T13:31:52.321Z,28.93
2018-07-22T13:34:21.197Z,26.93
2018-07-22T13:36:50.197Z,28.20
2018-07-22T13:39:19.202Z,28.86
2018-07-22T13:41:48.161Z,29.46
2018-07-22T13:44:17.134Z,29.20
2018-07-22T13:46:46.132Z,29.61
2018-07-22T13:49:15.160Z,30.13
2018-07-22T13:51:44.069Z,30.42
2018-07-22T13:54:13.043Z,31.82
2018-07-22T13:56:42.066Z,32.14
2018-07-22T13:59:10.981Z,31.63
2018-07-22T14:01:39.858Z,33.01
2018-07-22T14:04:08.805Z,33.22
2018-07-22T14:06:37.755Z,32.28
2018-07-22T14:09:08.772Z,32.71
2018-07-22T14:11:37.725Z,32.22
2018-07-22T14:14:06.728Z,32.87
2018-07-22T14:16:35.832Z,33.01
2018-07-22T14:19:04.897Z,33.53
2018-07-22T14:21:33.893Z,32.08
2018-07-22T14:24:02.938Z,31.77
2018-07-22T14:26:31.883Z,32.83
2018-07-22T14:29:00.844Z,32.39
2018-07-22T14:31:29.763Z,32.10
2018-07-22T14:33:58.780Z,32.11
2018-07-22T14:36:27.958Z,32.82
2018-07-22T14:38:56.940Z,33.22
2018-07-22T14:41:25.901Z,32.78
2018-07-22T14:43:54.864Z,32.07
2018-07-22T14:46:23.764Z,32.75
2018-07-22T14:48:52.728Z,32.18
2018-07-22T14:51:21.953Z,32.96
2018-07-22T14:53:50.895Z,32.21
2018-07-22T14:56:19.809Z,32.78
2018-07-22T14:58:48.818Z,34.28
2018-07-22T15:01:17.776Z,34.87
2018-07-22T15:03:46.652Z,33.61
2018-07-22T15:06:15.605Z,33.94
2018-07-22T15:08:44.454Z,34.25
2018-07-22T15:11:13.421Z,33.59
2018-07-22T15:13:42.446Z,32.25
2018-07-22T15:16:11.400Z,31.99
2018-07-22T15:18:40.368Z,32.22
2018-07-22T15:21:09.289Z,31.90
2018-07-22T15:23:38.147Z,29.79
2018-07-22T15:26:07.137Z,30.48
2018-07-22T15:28:36.189Z,32.12
2018-07-22T15:31:05.259Z,35.10
2018-07-22T15:33:34.222Z,35.39
2018-07-22T15:36:03.083Z,34.83
2018-07-22T15:38:31.936Z,35.31
2018-07-22T15:41:00.902Z,35.91
2018-07-22T15:43:29.854Z,34.15
2018-07-22T15:45:58.730Z,30.49
2018-07-22T15:48:27.625Z,31.10
2018-07-22T15:50:56.544Z,30.77
2018-07-22T15:53:25.456Z,30.83
2018-07-22T15:55:54.458Z,31.59
2018-07-22T15:58:23.510Z,32.68
2018-07-22T16:00:52.371Z,33.56
2018-07-22T16:03:21.362Z,37.01
2018-07-22T16:05:50.285Z,38.08
2018-07-22T16:08:19.309Z,35.59
2018-07-22T16:10:48.201Z,32.78
2018-07-22T16:13:17.160Z,32.29
2018-07-22T16:15:46.006Z,33.58
2018-07-22T16:18:14.954Z,33.20
2018-07-22T16:20:43.913Z,34.50
2018-07-22T16:23:12.934Z,35.59
2018-07-22T16:25:41.951Z,36.89
2018-07-22T16:28:10.954Z,38.34
2018-07-22T16:30:39.901Z,37.43
2018-07-22T16:33:08.851Z,37.94
2018-07-22T16:35:37.790Z,37.28
2018-07-22T16:38:06.815Z,35.61
2018-07-22T16:40:35.957Z,36.83
2018-07-22T16:43:04.936Z,37.74
2018-07-22T16:45:33.956Z,39.76
2018-07-22T16:48:02.941Z,36.70
2018-07-22T16:50:32.083Z,36.16
2018-07-22T16:53:01.023Z,36.77
2018-07-22T16:55:30.296Z,37.16
2018-07-22T16:57:59.259Z,37.08
2018-07-22T17:00:28.330Z,36.69
2018-07-22T17:02:57.243Z,35.84
2018-07-22T17:05:26.313Z,36.58
2018-07-22T17:07:55.356Z,37.17
2018-07-22T17:10:24.397Z,38.61
2018-07-22T17:12:53.388Z,38.57
2018-07-22T17:15:22.387Z,38.33
2018-07-22T17:17:51.386Z,36.97
2018-07-22T17:20:21.112Z,37.35
2018-07-22T17:22:50.075Z,39.10
2018-07-22T17:25:19.057Z,37.34
2018-07-22T17:27:48.094Z,37.56
2018-07-22T17:30:16.943Z,37.18
2018-07-22T17:32:45.997Z,35.83
2018-07-22T17:35:14.977Z,36.09
2018-07-22T17:37:43.893Z,37.82
2018-07-22T17:40:12.825Z,37.40
2018-07-22T17:42:41.872Z,36.86
2018-07-22T17:45:10.860Z,37.37
2018-07-22T17:47:39.830Z,38.88
2018-07-22T17:50:08.779Z,40.46
2018-07-22T17:52:37.722Z,43.00
2018-07-22T17:55:06.828Z,43.15
2018-07-22T17:57:35.892Z,43.96
2018-07-22T18:00:05.065Z,45.60
2018-07-22T18:02:34.086Z,47.41
2018-07-22T18:05:03.286Z,50.18
2018-07-22T18:07:32.233Z,50.01
2018-07-22T18:10:01.172Z,50.93
2018-07-22T18:12:30.210Z,50.77
2018-07-22T18:14:59.141Z,50.68
2018-07-22T18:17:28.046Z,51.88
2018-07-22T18:19:57.061Z,52.71
2018-07-22T18:22:26.005Z,53.03
2018-07-22T18:24:54.926Z,54.03
2018-07-22T18:27:23.805Z,54.17
2018-07-22T18:29:52.717Z,54.28
2018-07-22T18:32:21.756Z,55.01
2018-07-22T18:34:50.652Z,55.27
2018-07-22T18:37:19.698Z,55.40
2018-07-22T18:39:48.523Z,56.16
2018-07-22T18:42:17.481Z,55.97
2018-07-22T18:44:46.388Z,56.83
2018-07-22T18:47:15.280Z,56.96
2018-07-22T18:49:44.226Z,57.25
2018-07-22T18:52:13.183Z,56.79
2018-07-22T18:54:42.195Z,57.07
2018-07-22T18:57:11.368Z,55.37
2018-07-22T18:59:40.471Z,55.26
2018-07-22T19:02:09.474Z,54.40
2018-07-22T19:04:38.536Z,53.86
2018-07-22T19:07:07.453Z,53.49
2018-07-22T19:09:36.509Z,52.54
2018-07-22T19:12:05.466Z,53.08
2018-07-22T19:14:34.436Z,51.86
2018-07-22T19:17:03.387Z,51.76
2018-07-22T19:19:32.456Z,50.97
2018-07-22T19:22:01.377Z,49.80
2018-07-22T19:24:30.422Z,50.28
2018-07-22T19:26:59.428Z,50.97
2018-07-22T19:29:28.406Z,52.02
2018-07-22T19:31:57.466Z,51.82
2018-07-22T19:34:26.484Z,53.74
2018-07-22T19:36:55.526Z,53.28
2018-07-22T19:39:24.585Z,52.91
2018-07-22T19:41:53.633Z,54.07
2018-07-22T19:44:22.508Z,54.49
2018-07-22T19:46:51.458Z,55.44
2018-07-22T19:49:20.439Z,55.51
2018-07-22T19:51:49.532Z,55.11
2018-07-22T19:54:18.368Z,55.03
2018-07-22T19:56:47.335Z,55.64
2018-07-22T19:59:16.283Z,56.10
2018-07-22T20:01:45.303Z,55.82
2018-07-22T20:04:15.362Z,56.18
2018-07-22T20:06:44.947Z,57.40
2018-07-22T20:09:14.784Z,56.32
2018-07-22T20:11:44.269Z,56.97
2018-07-22T20:14:13.175Z,56.17
2018-07-22T20:16:42.083Z,56.92
2018-07-22T20:19:11.051Z,55.70
2018-07-22T20:21:40.162Z,56.15
2018-07-22T20:24:09.110Z,55.23
2018-07-22T20:26:37.987Z,55.76
2018-07-22T20:29:06.840Z,56.22
2018-07-22T20:31:35.811Z,55.21
2018-07-22T20:34:04.800Z,55.25
2018-07-22T20:36:33.752Z,59.31
2018-07-22T20:39:02.741Z,59.28
2018-07-22T20:41:31.900Z,58.16
2018-07-22T20:44:00.856Z,59.25
2018-07-22T20:46:29.784Z,60.24
2018-07-22T20:48:58.658Z,59.03
2018-07-22T20:51:27.662Z,59.96
2018-07-22T20:53:56.613Z,60.05
2018-07-22T20:56:25.550Z,60.03
2018-07-22T20:58:54.499Z,59.46
2018-07-22T21:01:23.460Z,59.30
2018-07-22T21:03:52.653Z,59.16
2018-07-22T21:06:21.536Z,60.55
2018-07-22T21:08:50.364Z,59.77
2018-07-22T21:11:19.231Z,59.45
2018-07-22T21:13:48.112Z,59.64
2018-07-22T21:16:17.248Z,58.14
2018-07-22T21:18:46.261Z,58.52
2018-07-22T21:21:16.835Z,59.11
2018-07-22T21:23:45.825Z,59.37
2018-07-22T21:26:14.715Z,58.53
2018-07-22T21:28:43.561Z,58.85
2018-07-22T21:31:12.399Z,57.97
2018-07-22T21:33:41.343Z,58.96
2018-07-22T21:36:10.269Z,58.63
2018-07-22T21:38:39.170Z,58.53
2018-07-22T21:41:08.105Z,58.77
2018-07-22T21:43:36.897Z,58.69
2018-07-22T21:46:05.770Z,58.17
2018-07-22T21:48:34.702Z,58.41
2018-07-22T21:51:03.654Z,58.23
2018-07-22T21:53:32.529Z,58.08
2018-07-22T21:56:01.383Z,58.61
2018-07-22T21:58:30.410Z,58.16
2018-07-22T22:00:59.306Z,58.35
2018-07-22T22:03:28.204Z,57.83
2018-07-22T22:05:57.074Z,58.04
2018-07-22T22:08:26.052Z,58.39
2018-07-22T22:10:54.966Z,59.24
2018-07-22T22:13:23.823Z,59.19
2018-07-22T22:15:52.728Z,58.09
2018-07-22T22:18:21.607Z,59.48
2018-07-22T22:20:50.539Z,60.22
2018-07-22T22:23:19.499Z,59.80
2018-07-22T22:25:48.443Z,59.53
2018-07-22T22:28:17.787Z,58.83
2018-07-22T22:30:46.704Z,59.41
2018-07-22T22:33:15.583Z,59.56
2018-07-22T22:35:44.445Z,59.60
2018-07-22T22:38:13.413Z,60.43
2018-07-22T22:40:42.322Z,59.95
2018-07-22T22:43:11.167Z,60.92
2018-07-22T22:45:40.005Z,61.09
2018-07-22T22:48:08.991Z,61.36
2018-07-22T22:50:37.887Z,61.77
2018-07-22T22:53:06.756Z,61.10
2018-07-22T22:55:35.686Z,60.92
2018-07-22T22:58:15.541Z,60.88
2018-07-22T23:00:44.561Z,61.48
2018-07-22T23:03:13.498Z,60.51
2018-07-22T23:05:42.471Z,61.20
2018-07-22T23:08:11.361Z,61.05
2018-07-22T23:10:40.237Z,61.03
2018-07-22T23:13:09.122Z,62.14
2018-07-22T23:15:38.076Z,61.67
2018-07-22T23:18:06.959Z,61.17
2018-07-22T23:20:35.858Z,61.77
2018-07-22T23:23:04.923Z,62.68
2018-07-22T23:25:33.824Z,61.78
2018-07-22T23:28:02.694Z,61.43
2018-07-22T23:30:31.571Z,61.18
2018-07-22T23:33:00.579Z,60.69
2018-07-22T23:35:29.443Z,60.58
2018-07-22T23:37:58.367Z,61.41
2018-07-22T23:40:27.359Z,61.27
2018-07-22T23:42:56.286Z,61.97
2018-07-22T23:45:25.170Z,62.98
2018-07-22T23:47:54.070Z,62.12
2018-07-22T23:50:22.955Z,62.06
2018-07-22T23:52:51.852Z,62.46
2018-07-22T23:55:20.858Z,63.08
2018-07-22T23:57:49.689Z,63.78
